Time;durP1;ratioP1;P1;durP2;ratioP2;P2;SDS_P1;SDS_P2;PMS_P1;PMS_P2;Temp;Humidity;BMP_temperature;BMP_pressure;BME280_temperature;BME280_humidity;BME280_pressure;Samples;Min_cycle;Max_cycle;Signal;HPM_P1;HPM_P2
2022/10/29 03:01:37;;;;;;;1.45;0.88;;;21.20;53.40;;;;;;5289828;23;45885;-64
2022/10/29 03:04:03;;;;;;;1.35;0.95;;;21.20;53.40;;;;;;4849817;29;45182;-63
2022/10/29 03:06:28;;;;;;;1.20;1.00;;;21.20;53.30;;;;;;4857328;29;45587;-63
2022/10/29 03:08:54;;;;;;;1.13;0.90;;;21.20;53.30;;;;;;4866906;29;45349;-63
2022/10/29 03:11:19;;;;;;;1.27;1.02;;;21.20;53.40;;;;;;4851558;29;45997;-63
2022/10/29 03:13:45;;;;;;;1.55;1.17;;;21.20;53.40;;;;;;4841954;29;45567;-63
2022/10/29 03:16:11;;;;;;;1.23;1.00;;;21.20;53.30;;;;;;4841932;29;45242;-62
2022/10/29 03:18:36;;;;;;;1.15;0.82;;;21.20;53.40;;;;;;4835762;29;45310;-64
2022/10/29 03:21:02;;;;;;;0.98;0.68;;;21.20;53.30;;;;;;4841926;29;46149;-63
2022/10/29 03:23:27;;;;;;;1.00;0.80;;;21.20;53.40;;;;;;4839328;29;45522;-63
2022/10/29 03:25:53;;;;;;;1.42;1.17;;;21.20;53.30;;;;;;4846456;29;45143;-62
2022/10/29 03:28:23;;;;;;;1.20;0.80;;;21.20;53.40;;;;;;4846893;29;45504;-64
2022/10/29 03:30:48;;;;;;;1.95;1.10;;;21.20;53.40;;;;;;4846440;29;46064;-63
2022/10/29 03:33:14;;;;;;;1.73;1.08;;;21.20;53.40;;;;;;4835515;29;45325;-64
2022/10/29 03:35:40;;;;;;;1.25;0.90;;;21.20;53.40;;;;;;4844796;29;45264;-61
2022/10/29 03:38:05;;;;;;;1.60;1.20;;;21.10;53.40;;;;;;4839906;29;45556;-64
2022/10/29 03:40:31;;;;;;;1.27;1.00;;;21.10;53.40;;;;;;4845077;29;46046;-63
2022/10/29 03:42:56;;;;;;;1.48;0.93;;;21.10;53.40;;;;;;4844908;29;44947;-64
2022/10/29 03:45:22;;;;;;;1.27;1.10;;;21.20;53.40;;;;;;4838926;29;45273;-63
2022/10/29 03:47:47;;;;;;;1.80;1.17;;;21.20;53.40;;;;;;4842029;29;45342;-66
2022/10/29 03:50:13;;;;;;;1.75;1.20;;;21.20;53.40;;;;;;4844165;29;46372;-62
2022/10/29 03:52:39;;;;;;;1.42;1.13;;;21.20;53.40;;;;;;4836160;29;45501;-62
2022/10/29 03:55:04;;;;;;;1.20;0.88;;;21.10;53.30;;;;;;4841203;29;45191;-64
2022/10/29 03:57:30;;;;;;;2.08;1.00;;;21.10;53.40;;;;;;4843666;29;45562;-63
2022/10/29 03:59:56;;;;;;;1.95;1.00;;;21.10;53.40;;;;;;4839981;29;45964;-63
2022/10/29 04:02:21;;;;;;;1.42;0.82;;;21.10;53.40;;;;;;4861244;29;45002;-61
2022/10/29 04:04:47;;;;;;;1.63;0.90;;;21.10;53.40;;;;;;4859764;29;45331;-63
2022/10/29 04:07:13;;;;;;;1.70;1.00;;;21.10;53.40;;;;;;4861523;29;45631;-63
2022/10/29 04:09:38;;;;;;;1.55;1.08;;;21.10;53.40;;;;;;4858445;29;46129;-62
2022/10/29 04:12:04;;;;;;;1.02;0.80;;;21.10;53.40;;;;;;4862384;29;45298;-62
2022/10/29 04:14:30;;;;;;;1.08;0.93;;;21.10;53.40;;;;;;4862991;29;45302;-60
2022/10/29 04:16:56;;;;;;;1.25;1.10;;;21.10;53.40;;;;;;4861261;29;44825;-60
2022/10/29 04:19:22;;;;;;;3.20;1.10;;;21.10;53.40;;;;;;4862545;29;46236;-62
2022/10/29 04:21:47;;;;;;;1.40;1.00;;;21.10;53.40;;;;;;4858526;29;46511;-61
2022/10/29 04:24:13;;;;;;;0.93;0.80;;;21.10;53.50;;;;;;4843800;29;45338;-61
2022/10/29 04:26:40;;;;;;;2.08;0.88;;;21.10;53.40;;;;;;4862543;29;46428;-62
2022/10/29 04:29:06;;;;;;;1.02;0.90;;;21.10;53.40;;;;;;4860531;29;45961;-62
2022/10/29 04:31:31;;;;;;;2.45;1.30;;;21.10;53.40;;;;;;4857318;29;44855;-61
2022/10/29 04:33:57;;;;;;;1.10;1.00;;;21.10;53.40;;;;;;4849271;29;45151;-61
2022/10/29 04:36:22;;;;;;;2.05;1.13;;;21.10;53.40;;;;;;4865350;29;45493;-62
2022/10/29 04:38:49;;;;;;;0.80;0.80;;;21.10;53.40;;;;;;4866543;29;46227;-62
2022/10/29 04:41:15;;;;;;;1.38;1.00;;;21.10;53.30;;;;;;4850894;29;45438;-62
2022/10/29 04:43:40;;;;;;;1.52;1.15;;;21.10;53.40;;;;;;4863278;29;45524;-61
2022/10/29 04:46:06;;;;;;;0.95;0.85;;;21.10;53.40;;;;;;4859951;29;45454;-63
2022/10/29 04:48:31;;;;;;;2.40;1.20;;;21.10;53.40;;;;;;4855338;29;46034;-63
2022/10/29 04:50:57;;;;;;;1.75;1.00;;;21.10;53.40;;;;;;4861164;29;44965;-63
2022/10/29 04:53:22;;;;;;;2.08;1.10;;;21.10;53.40;;;;;;4864803;29;45655;-61
2022/10/29 04:55:48;;;;;;;1.90;1.05;;;21.10;53.30;;;;;;4862376;29;45047;-62
2022/10/29 04:58:15;;;;;;;1.90;1.00;;;21.10;53.40;;;;;;4863727;29;45964;-62
2022/10/29 05:00:41;;;;;;;0.88;0.80;;;21.10;53.40;;;;;;4827249;29;45252;-63
2022/10/29 05:03:06;;;;;;;1.73;1.20;;;21.10;53.40;;;;;;4844570;29;45801;-62
2022/10/29 05:05:32;;;;;;;1.25;0.98;;;21.10;53.40;;;;;;4830287;29;45105;-62
2022/10/29 05:08:01;;;;;;;1.30;0.90;;;21.10;53.40;;;;;;4840923;29;45608;-63
2022/10/29 05:10:28;;;;;;;1.00;0.73;;;21.00;53.30;;;;;;4843043;29;45067;-62
2022/10/29 05:13:02;;;;;;;1.17;0.90;;;21.00;53.30;;;;;;4845483;29;45269;-62
2022/10/29 05:15:30;;;;;;;1.88;0.98;;;21.00;53.40;;;;;;4847057;29;45461;-62
2022/10/29 05:17:56;;;;;;;2.10;1.00;;;21.00;53.40;;;;;;4838616;29;45973;-62
2022/10/29 05:20:22;;;;;;;1.15;0.90;;;21.00;53.30;;;;;;4845213;29;45426;-63
2022/10/29 05:22:47;;;;;;;2.47;0.80;;;21.00;53.30;;;;;;4846265;29;44914;-62
2022/10/29 05:25:13;;;;;;;1.40;0.90;;;21.00;53.30;;;;;;4836538;29;45261;-63
2022/10/29 05:27:38;;;;;;;1.65;1.08;;;21.00;53.40;;;;;;4837657;29;46761;-63
2022/10/29 05:30:05;;;;;;;1.65;1.10;;;21.00;53.30;;;;;;4845699;29;45438;-62
2022/10/29 05:32:30;;;;;;;0.95;0.80;;;21.00;53.40;;;;;;4846265;29;45082;-62
2022/10/29 05:34:56;;;;;;;1.50;0.90;;;21.00;53.40;;;;;;4843525;29;45597;-62
2022/10/29 05:37:24;;;;;;;1.08;0.88;;;21.00;53.30;;;;;;4844151;29;45328;-61
2022/10/29 05:39:50;;;;;;;2.17;1.20;;;21.00;53.30;;;;;;4823120;29;45207;-62
2022/10/29 05:42:15;;;;;;;1.40;1.10;;;21.00;53.40;;;;;;4845591;29;45234;-62
2022/10/29 05:44:41;;;;;;;1.85;0.95;;;21.00;53.30;;;;;;4841266;29;45218;-62
2022/10/29 05:47:06;;;;;;;1.02;0.93;;;21.00;53.30;;;;;;4838605;29;45888;-61
2022/10/29 05:49:32;;;;;;;1.10;1.00;;;21.00;53.40;;;;;;4845692;29;45225;-62
2022/10/29 05:51:58;;;;;;;2.67;1.00;;;21.00;53.30;;;;;;4843052;29;44993;-62
2022/10/29 05:54:23;;;;;;;2.05;1.05;;;21.00;53.40;;;;;;4840025;29;45553;-63
2022/10/29 05:56:49;;;;;;;1.52;0.95;;;21.00;53.40;;;;;;4843745;29;46199;-63
2022/10/29 05:59:14;;;;;;;2.03;1.10;;;21.00;53.40;;;;;;4838383;29;45302;-62
2022/10/29 06:01:40;;;;;;;1.40;1.08;;;21.00;53.30;;;;;;4839793;29;45289;-63
2022/10/29 06:04:05;;;;;;;2.38;1.05;;;21.00;53.30;;;;;;4839946;29;45598;-61
2022/10/29 06:06:31;;;;;;;1.38;1.02;;;21.00;53.40;;;;;;4839446;29;46037;-62
2022/10/29 06:08:57;;;;;;;2.38;0.90;;;21.00;53.40;;;;;;4844861;29;45534;-63
2022/10/29 06:11:22;;;;;;;1.05;0.93;;;21.00;53.40;;;;;;4843158;29;45629;-63
2022/10/29 06:13:48;;;;;;;2.22;1.05;;;21.00;53.30;;;;;;4851484;29;45219;-61
2022/10/29 06:16:13;;;;;;;2.63;1.05;;;21.00;53.40;;;;;;4806922;29;46447;-61
2022/10/29 06:18:39;;;;;;;1.35;1.05;;;21.00;53.40;;;;;;4842280;29;45253;-62
2022/10/29 06:21:04;;;;;;;1.73;1.10;;;21.00;53.40;;;;;;4841311;29;45170;-63
2022/10/29 06:23:30;;;;;;;1.35;0.80;;;21.00;53.40;;;;;;4844848;29;45470;-62
2022/10/29 06:25:58;;;;;;;1.52;0.93;;;21.00;53.40;;;;;;4844580;29;45653;-62
2022/10/29 06:28:24;;;;;;;1.10;1.00;;;20.90;53.30;;;;;;4839444;29;45577;-63
2022/10/29 06:30:50;;;;;;;1.52;1.00;;;21.00;53.40;;;;;;4843301;29;44771;-62
2022/10/29 06:33:16;;;;;;;1.23;0.90;;;20.90;53.40;;;;;;4842842;29;45201;-61
2022/10/29 06:35:42;;;;;;;1.48;0.88;;;20.90;53.40;;;;;;4837037;29;46201;-62
2022/10/29 06:38:07;;;;;;;1.30;1.10;;;20.90;53.40;;;;;;4840511;29;44735;-63
2022/10/29 06:40:33;;;;;;;1.20;1.00;;;20.90;53.40;;;;;;4839949;29;45300;-61
2022/10/29 06:43:03;;;;;;;2.47;0.98;;;20.90;53.40;;;;;;4845401;29;45523;-61
2022/10/29 06:45:29;;;;;;;1.20;0.93;;;20.90;53.40;;;;;;4840581;29;47181;-62
2022/10/29 06:47:55;;;;;;;1.00;0.88;;;20.90;53.40;;;;;;4843547;29;45638;-61
2022/10/29 06:50:20;;;;;;;1.10;0.85;;;20.90;53.40;;;;;;4840811;29;44988;-61
2022/10/29 06:52:54;;;;;;;1.42;1.10;;;20.90;53.30;;;;;;4844301;29;45573;-61
2022/10/29 06:55:19;;;;;;;;;;;20.90;53.40;;;;;;4838726;29;46030;-62
2022/10/29 06:57:45;;;;;;;1.63;0.90;;;20.90;53.50;;;;;;4840782;29;45422;-62
2022/10/29 07:00:10;;;;;;;1.90;1.00;;;20.90;53.40;;;;;;4837251;29;45402;-62
2022/10/29 07:02:36;;;;;;;1.30;0.95;;;20.90;53.50;;;;;;4842815;29;45140;-61
2022/10/29 07:05:02;;;;;;;1.98;1.00;;;20.90;53.40;;;;;;4841798;29;45145;-61
2022/10/29 07:07:28;;;;;;;1.45;0.90;;;20.90;53.30;;;;;;4843128;29;45225;-62
2022/10/29 07:09:53;;;;;;;1.00;0.82;;;20.90;53.40;;;;;;4837963;29;45358;-63
2022/10/29 07:12:19;;;;;;;0.70;0.70;;;20.90;53.40;;;;;;4837767;29;45564;-63
2022/10/29 07:14:44;;;;;;;1.13;1.00;;;20.90;53.40;;;;;;4835856;29;45971;-62
2022/10/29 07:17:10;;;;;;;1.67;1.05;;;20.90;53.40;;;;;;4839943;29;45551;-60
2022/10/29 07:19:35;;;;;;;0.77;0.77;;;20.90;53.40;;;;;;4855671;29;45337;-62
2022/10/29 07:22:01;;;;;;;1.38;0.90;;;20.90;53.40;;;;;;4834370;29;46258;-62
2022/10/29 07:24:26;;;;;;;1.20;0.95;;;20.90;53.40;;;;;;4839252;29;45313;-62
2022/10/29 07:26:52;;;;;;;0.98;0.88;;;20.90;53.40;;;;;;4837207;29;45226;-61
2022/10/29 07:29:17;;;;;;;1.30;0.93;;;20.90;53.40;;;;;;4842984;29;45012;-62
2022/10/29 07:31:43;;;;;;;1.17;1.00;;;20.90;53.40;;;;;;4836794;29;45700;-62
2022/10/29 07:34:08;;;;;;;1.88;1.17;;;20.90;53.40;;;;;;4823492;29;45402;-62
2022/10/29 07:36:34;;;;;;;1.95;1.08;;;20.80;53.30;;;;;;4836585;29;45797;-62
2022/10/29 07:39:01;;;;;;;2.30;1.30;;;20.80;53.40;;;;;;4841545;29;45316;-62
2022/10/29 07:41:27;;;;;;;0.90;0.65;;;20.90;53.40;;;;;;4840977;29;45268;-62
2022/10/29 07:43:52;;;;;;;1.30;0.90;;;20.80;53.40;;;;;;4834514;29;45934;-62
2022/10/29 07:46:18;;;;;;;0.68;0.68;;;20.90;53.40;;;;;;4839282;29;45006;-62
2022/10/29 07:48:43;;;;;;;1.25;0.90;;;20.90;53.40;;;;;;4840787;29;45166;-62
2022/10/29 07:51:09;;;;;;;1.38;0.90;;;20.80;53.30;;;;;;4843881;29;45887;-63
2022/10/29 07:53:35;;;;;;;0.98;0.85;;;20.90;53.40;;;;;;4840510;29;46129;-63
2022/10/29 07:56:00;;;;;;;1.00;0.80;;;20.80;53.30;;;;;;4836489;29;45210;-62
2022/10/29 07:58:26;;;;;;;1.33;0.95;;;20.90;53.40;;;;;;4845953;29;45830;-62
2022/10/29 08:00:51;;;;;;;0.98;0.80;;;20.80;53.40;;;;;;4834170;29;45562;-62
2022/10/29 08:03:17;;;;;;;1.80;1.10;;;20.80;53.40;;;;;;4836249;29;46187;-62
2022/10/29 08:05:43;;;;;;;0.85;0.80;;;20.80;53.40;;;;;;4838992;29;45180;-62
2022/10/29 08:08:08;;;;;;;1.05;0.82;;;20.80;53.40;;;;;;4838857;29;45443;-62
2022/10/29 08:10:34;;;;;;;1.30;0.90;;;20.80;53.40;;;;;;4838256;29;44814;-62
2022/10/29 08:13:01;;;;;;;1.10;1.00;;;20.80;53.40;;;;;;4841227;29;45684;-61
2022/10/29 08:15:29;;;;;;;1.45;0.90;;;20.80;53.40;;;;;;4827933;29;45216;-61
2022/10/29 08:17:54;;;;;;;1.77;0.95;;;20.80;53.40;;;;;;4838638;29;45592;-61
2022/10/29 08:20:20;;;;;;;0.90;0.73;;;20.80;53.40;;;;;;4836796;29;45260;-62
2022/10/29 08:22:46;;;;;;;1.95;0.88;;;20.80;53.40;;;;;;4839465;29;46094;-61
2022/10/29 08:25:12;;;;;;;1.13;0.90;;;20.80;53.40;;;;;;4832891;29;45361;-61
2022/10/29 08:27:38;;;;;;;1.25;0.80;;;20.80;53.40;;;;;;4835326;29;46024;-62
2022/10/29 08:30:05;;;;;;;1.15;0.93;;;20.80;53.40;;;;;;4824099;29;45540;-63
2022/10/29 08:32:30;;;;;;;1.10;1.00;;;20.80;53.40;;;;;;4829434;29;45403;-61
2022/10/29 08:34:56;;;;;;;1.05;0.90;;;20.80;53.40;;;;;;4842420;29;45151;-61
2022/10/29 08:37:22;;;;;;;2.28;1.13;;;20.80;53.40;;;;;;4849212;29;45368;-60
2022/10/29 08:39:47;;;;;;;0.73;0.73;;;20.80;53.30;;;;;;4840008;29;45599;-61
2022/10/29 08:42:33;;;;;;;1.17;0.85;;;20.90;53.40;;;;;;4830499;29;45827;-63
2022/10/29 08:45:22;;;;;;;1.55;0.88;;;20.90;53.40;;;;;;4824312;29;45313;-62
2022/10/29 08:48:10;;;;;;;1.17;0.80;;;20.80;53.30;;;;;;4839428;29;45211;-62
2022/10/29 08:50:40;;;;;;;1.70;1.10;;;20.90;53.30;;;;;;4832299;29;44927;-63
2022/10/29 08:53:23;;;;;;;1.08;0.88;;;20.80;53.30;;;;;;4844900;29;45151;-61
2022/10/29 08:55:48;;;;;;;0.88;0.70;;;20.90;53.30;;;;;;4836868;29;45390;-62
2022/10/29 08:58:30;;;;;;;2.05;0.98;;;20.80;53.20;;;;;;4834940;29;45170;-63
2022/10/29 09:00:56;;;;;;;0.80;0.80;;;20.90;53.20;;;;;;4836342;29;46809;-61
2022/10/29 09:03:22;;;;;;;1.52;0.98;;;20.90;53.20;;;;;;4831762;29;46223;-62
2022/10/29 09:06:12;;;;;;;1.45;0.85;;;20.90;53.20;;;;;;4823836;29;45045;-62
2022/10/29 09:09:00;;;;;;;1.00;0.73;;;20.90;53.20;;;;;;4826614;29;45160;-62
2022/10/29 09:11:37;;;;;;;0.90;0.75;;;20.90;53.20;;;;;;4832635;29;45312;-62
2022/10/29 09:14:21;;;;;;;1.27;1.10;;;20.90;53.20;;;;;;4839236;29;46027;-61
2022/10/29 09:16:54;;;;;;;1.27;0.80;;;20.90;53.10;;;;;;4831517;29;45617;-62
2022/10/29 09:19:23;;;;;;;;;;;20.90;53.10;;;;;;4829671;29;45807;-63
2022/10/29 09:22:11;;;;;;;1.80;1.17;;;20.90;53.10;;;;;;4839971;29;45495;-62
2022/10/29 09:24:39;;;;;;;0.88;0.82;;;20.90;53.10;;;;;;4818793;29;46263;-64
2022/10/29 09:27:10;;;;;;;1.67;0.90;;;20.90;53.10;;;;;;4833868;29;45638;-64
2022/10/29 09:29:53;;;;;;;1.42;0.98;;;21.00;53.10;;;;;;4838836;29;45470;-63
2022/10/29 09:32:29;;;;;;;0.70;0.70;;;21.00;53.10;;;;;;4833832;29;45448;-62
2022/10/29 09:34:57;;;;;;;0.98;0.80;;;20.90;53.10;;;;;;4841618;29;46089;-63
2022/10/29 09:37:26;;;;;;;1.48;0.90;;;21.00;53.10;;;;;;4817505;29;44934;-62
2022/10/29 09:39:52;;;;;;;0.77;0.77;;;21.00;53.10;;;;;;4855519;29;45538;-63
2022/10/29 09:42:25;;;;;;;0.88;0.80;;;20.90;53.00;;;;;;4833880;29;45582;-63
2022/10/29 09:44:54;;;;;;;1.17;1.05;;;21.00;53.10;;;;;;4825974;29;45642;-61
2022/10/29 09:47:41;;;;;;;1.00;0.88;;;20.90;53.10;;;;;;4813852;29;45304;-62
2022/10/29 09:50:24;;;;;;;1.05;0.70;;;20.90;53.10;;;;;;4839768;29;45438;-62
2022/10/29 09:52:50;;;;;;;1.10;0.80;;;21.00;53.10;;;;;;4837759;29;45572;-62
2022/10/29 09:55:25;;;;;;;1.55;0.88;;;20.90;53.10;;;;;;4832967;29;46158;-61
2022/10/29 09:57:51;;;;;;;0.70;0.70;;;21.00;53.10;;;;;;4836092;29;46090;-63
2022/10/29 10:00:21;;;;;;;1.20;0.90;;;20.90;53.10;;;;;;4831517;29;44729;-63
2022/10/29 10:03:09;;;;;;;3.70;0.93;;;21.00;53.10;;;;;;4835963;29;45681;-61
2022/10/29 10:05:35;;;;;;;0.80;0.80;;;21.00;53.10;;;;;;4833346;29;45419;-63
2022/10/29 10:08:11;;;;;;;1.00;0.88;;;21.00;53.10;;;;;;4831188;29;45214;-62
2022/10/29 10:11:00;;;;;;;1.27;0.90;;;21.00;53.00;;;;;;4833063;29;45375;-62
2022/10/29 10:13:31;;;;;;;1.23;0.80;;;21.00;53.00;;;;;;4834508;29;45296;-62
2022/10/29 10:16:01;;;;;;;0.82;0.80;;;21.00;53.00;;;;;;4832449;29;46204;-62
2022/10/29 10:18:30;;;;;;;0.93;0.70;;;21.00;53.30;;;;;;4834544;29;45057;-63
2022/10/29 10:21:07;;;;;;;0.85;0.80;;;21.00;53.00;;;;;;4837320;29;45992;-63
2022/10/29 10:23:44;;;;;;;1.55;0.90;;;21.00;53.00;;;;;;4828156;29;45566;-63
2022/10/29 10:26:30;;;;;;;1.30;0.88;;;21.00;53.00;;;;;;4850267;29;46179;-62
2022/10/29 10:29:21;;;;;;;1.13;0.90;;;21.00;53.00;;;;;;4834079;29;46329;-62
2022/10/29 10:31:54;;;;;;;0.93;0.80;;;21.00;53.00;;;;;;4834243;29;45512;-62
2022/10/29 10:34:24;;;;;;;1.45;0.90;;;21.00;53.00;;;;;;4840250;29;45147;-62
2022/10/29 10:37:04;;;;;;;1.00;0.80;;;21.00;52.90;;;;;;4840186;29;46306;-62
2022/10/29 10:39:40;;;;;;;1.48;0.80;;;21.10;52.90;;;;;;4836132;29;45333;-63
2022/10/29 10:42:19;;;;;;;0.88;0.70;;;21.10;52.90;;;;;;4850406;29;45266;-62
2022/10/29 10:44:51;;;;;;;1.08;0.80;;;21.10;52.80;;;;;;4836555;29;45370;-63
2022/10/29 10:47:16;;;;;;;1.63;0.80;;;21.10;52.70;;;;;;4817785;29;46190;-63
2022/10/29 10:49:42;;;;;;;1.02;0.90;;;21.20;52.70;;;;;;4851881;29;45287;-62
2022/10/29 10:52:17;;;;;;;0.60;0.60;;;21.10;52.70;;;;;;4826856;29;45124;-62
2022/10/29 10:54:55;;;;;;;0.88;0.68;;;21.20;52.70;;;;;;4838473;29;45396;-62
2022/10/29 10:57:23;;;;;;;1.55;0.80;;;21.20;52.60;;;;;;4841951;29;45002;-62
2022/10/29 11:00:10;;;;;;;1.30;0.88;;;21.20;52.60;;;;;;4841805;29;45257;-63
2022/10/29 11:02:38;;;;;;;1.02;0.77;;;21.20;52.70;;;;;;4840414;29;45871;-62
2022/10/29 11:05:16;;;;;;;1.23;0.80;;;21.20;52.60;;;;;;4831737;29;45064;-62
2022/10/29 11:08:13;;;;;;;0.85;0.80;;;21.20;52.60;;;;;;4839023;29;46251;-62
2022/10/29 11:10:53;;;;;;;1.23;0.80;;;21.20;52.60;;;;;;4830521;29;45169;-62
2022/10/29 11:13:21;;;;;;;1.00;0.90;;;21.20;52.60;;;;;;4832424;29;45311;-63
2022/10/29 11:15:57;;;;;;;1.10;0.90;;;21.20;52.60;;;;;;4826997;29;45636;-63
2022/10/29 11:18:33;;;;;;;1.10;0.82;;;21.20;52.60;;;;;;4834552;29;46079;-62
2022/10/29 11:21:03;;;;;;;1.23;0.73;;;21.20;52.60;;;;;;4845224;29;44919;-63
2022/10/29 11:23:58;;;;;;;1.25;0.90;;;21.20;52.60;;;;;;4839810;29;45390;-62
2022/10/29 11:26:45;;;;;;;3.50;0.90;;;21.20;52.60;;;;;;4839866;29;46717;-63
2022/10/29 11:29:20;;;;;;;0.70;0.70;;;21.20;52.50;;;;;;4842654;29;46026;-62
2022/10/29 11:31:59;;;;;;;1.15;0.93;;;21.30;52.60;;;;;;4838984;29;45693;-62
2022/10/29 11:34:43;;;;;;;1.27;0.80;;;21.20;52.50;;;;;;4834036;29;45188;-62
2022/10/29 11:37:42;;;;;;;1.00;0.80;;;21.30;52.60;;;;;;4837726;29;45180;-62
2022/10/29 11:40:36;;;;;;;1.45;1.00;;;21.30;52.50;;;;;;4848356;29;46779;-63
2022/10/29 11:43:02;;;;;;;1.15;1.02;;;21.30;52.50;;;;;;4837936;29;46151;-62
2022/10/29 11:45:57;;;;;;;0.85;0.80;;;21.30;52.60;;;;;;4840438;29;44787;-61
2022/10/29 11:48:26;;;;;;;0.85;0.70;;;21.30;52.50;;;;;;4839537;29;45175;-63
2022/10/29 11:51:06;;;;;;;1.45;1.10;;;21.30;52.60;;;;;;4839416;29;45763;-61
2022/10/29 11:53:40;;;;;;;1.50;1.30;;;21.30;52.90;;;;;;4843767;29;44934;-61
2022/10/29 11:56:21;;;;;;;2.38;1.20;;;21.30;52.90;;;;;;4826280;29;45303;-61
2022/10/29 11:58:55;;;;;;;4.15;1.08;;;21.30;52.90;;;;;;4839826;29;45134;-61
2022/10/29 12:01:35;;;;;;;5.07;1.48;;;21.30;53.10;;;;;;4830201;29;46091;-61
2022/10/29 12:04:32;;;;;;;4.63;1.58;;;21.30;53.30;;;;;;4841618;29;44812;-64
2022/10/29 12:07:18;;;;;;;4.82;1.83;;;21.40;53.60;;;;;;4827909;29;45325;-59
2022/10/29 12:10:07;;;;;;;4.28;2.15;;;21.40;54.20;;;;;;4839565;29;45148;-62
2022/10/29 12:12:51;;;;;;;8.73;1.80;;;21.40;53.80;;;;;;4829945;29;47025;-63
2022/10/29 12:15:28;;;;;;;7.55;2.30;;;21.50;54.70;;;;;;4838600;29;45305;-65
2022/10/29 12:18:06;;;;;;;6.63;2.42;;;21.50;54.50;;;;;;4844302;29;45925;-62
2022/10/29 12:20:40;;;;;;;11.80;2.60;;;21.50;54.80;;;;;;4833581;29;46177;-62
2022/10/29 12:23:36;;;;;;;6.43;2.40;;;21.50;54.80;;;;;;4844009;29;46171;-62
2022/10/29 12:26:24;;;;;;;7.60;2.35;;;21.60;55.90;;;;;;4846059;29;45199;-63
2022/10/29 12:29:10;;;;;;;5.72;2.35;;;21.60;55.40;;;;;;4836225;29;46385;-63
2022/10/29 12:31:41;;;;;;;5.22;2.35;;;21.60;56.30;;;;;;4839623;29;46027;-63
2022/10/29 12:34:12;;;;;;;16.08;3.00;;;21.60;55.70;;;;;;4841957;29;45310;-63
2022/10/29 12:37:04;;;;;;;10.40;2.83;;;21.70;55.90;;;;;;4820087;29;45480;-63
2022/10/29 12:39:38;;;;;;;9.65;2.75;;;21.70;56.50;;;;;;4845447;29;44704;-63
2022/10/29 12:42:13;;;;;;;16.00;3.15;;;21.80;56.60;;;;;;4809162;29;45466;-63
2022/10/29 12:45:07;;;;;;;12.88;2.70;;;21.80;56.70;;;;;;4828791;29;45977;-63
2022/10/29 12:47:59;;;;;;;9.70;2.90;;;21.90;57.00;;;;;;4826504;29;45367;-64
2022/10/29 12:50:55;;;;;;;10.50;2.60;;;21.90;57.40;;;;;;4830655;29;44794;-64
2022/10/29 12:53:28;;;;;;;8.13;2.72;;;21.90;57.40;;;;;;4852659;29;45219;-65
2022/10/29 12:55:53;;;;;;;7.70;2.83;;;21.90;56.90;;;;;;4848441;29;46061;-65
2022/10/29 12:58:41;;;;;;;9.02;3.30;;;21.90;56.80;;;;;;4838917;29;45197;-64
2022/10/29 13:01:30;;;;;;;8.15;3.03;;;22.00;58.00;;;;;;4842335;29;45381;-64
2022/10/29 13:03:56;;;;;;;10.00;2.90;;;22.00;57.20;;;;;;4842355;29;45316;-62
2022/10/29 13:06:40;;;;;;;10.35;2.63;;;22.00;57.20;;;;;;4843679;29;45843;-63
2022/10/29 13:09:22;;;;;;;9.65;3.38;;;22.10;58.40;;;;;;4842726;29;45356;-64
2022/10/29 13:11:58;;;;;;;9.95;3.10;;;22.20;58.00;;;;;;4824578;29;45703;-63
2022/10/29 13:14:36;;;;;;;9.90;3.00;;;22.20;57.80;;;;;;4838998;29;45775;-64
2022/10/29 13:17:04;;;;;;;6.70;2.90;;;22.20;57.60;;;;;;4813034;29;45988;-64
2022/10/29 13:19:41;;;;;;;10.25;3.42;;;22.20;57.40;;;;;;4841145;29;45456;-65
2022/10/29 13:22:16;;;;;;;10.40;2.70;;;22.20;57.40;;;;;;4844951;29;45362;-64
2022/10/29 13:24:41;;;;;;;9.65;3.03;;;22.30;57.60;;;;;;4843600;29;45596;-64
2022/10/29 13:27:16;;;;;;;8.73;2.67;;;22.30;57.30;;;;;;4836511;29;45140;-64
2022/10/29 13:29:47;;;;;;;7.28;3.08;;;22.40;57.70;;;;;;4838327;29;45605;-63
2022/10/29 13:32:35;;;;;;;11.07;2.80;;;22.40;57.40;;;;;;4834994;29;45007;-63
2022/10/29 13:35:22;;;;;;;11.27;3.15;;;22.40;58.10;;;;;;4819787;29;46102;-63
2022/10/29 13:37:49;;;;;;;8.55;2.70;;;22.40;57.50;;;;;;4809487;29;47127;-64
2022/10/29 13:40:21;;;;;;;9.40;3.08;;;22.40;57.50;;;;;;4840450;29;45254;-63
2022/10/29 13:43:01;;;;;;;12.00;3.13;;;22.50;57.80;;;;;;4841530;29;45403;-64
2022/10/29 13:45:27;;;;;;;6.72;2.97;;;22.50;58.10;;;;;;4819974;29;46099;-63
2022/10/29 13:47:59;;;;;;;8.02;3.20;;;22.50;57.80;;;;;;4840154;29;46481;-63
2022/10/29 13:50:25;;;;;;;14.60;3.30;;;22.60;58.30;;;;;;4835846;29;45589;-63
2022/10/29 13:52:51;;;;;;;9.27;3.00;;;22.60;58.10;;;;;;4845838;29;45481;-64
2022/10/29 13:55:17;;;;;;;8.40;2.85;;;22.60;58.20;;;;;;4822824;29;45246;-64
2022/10/29 13:58:01;;;;;;;8.75;3.13;;;22.60;58.00;;;;;;4853291;29;45242;-63
2022/10/29 14:00:27;;;;;;;6.45;2.47;;;22.70;58.90;;;;;;4835752;29;45377;-63
2022/10/29 14:02:56;;;;;;;8.38;2.72;;;22.70;58.20;;;;;;4826829;29;45316;-62
2022/10/29 14:05:43;;;;;;;13.10;2.90;;;22.70;58.20;;;;;;4820548;29;45161;-64
2022/10/29 14:08:14;;;;;;;9.55;2.83;;;22.70;58.30;;;;;;4816766;29;45969;-63
2022/10/29 14:10:40;;;;;;;6.47;3.00;;;22.70;58.60;;;;;;4819021;29;45481;-63
2022/10/29 14:13:28;;;;;;;7.22;2.90;;;22.70;58.40;;;;;;4827577;29;44815;-64
2022/10/29 14:16:06;;;;;;;6.10;2.58;;;22.70;58.90;;;;;;4823936;29;45400;-63
2022/10/29 14:18:36;;;;;;;10.02;3.17;;;22.60;58.70;;;;;;4823205;29;45241;-63
2022/10/29 14:21:03;;;;;;;8.30;2.95;;;22.60;58.80;;;;;;4800673;29;45603;-63
2022/10/29 14:23:29;;;;;;;7.25;2.92;;;22.70;58.70;;;;;;4823409;29;45271;-63
2022/10/29 14:25:56;;;;;;;6.93;2.65;;;22.70;58.70;;;;;;4825557;29;45196;-62
2022/10/29 14:28:29;;;;;;;6.40;2.72;;;22.70;58.80;;;;;;4822396;29;46015;-65
2022/10/29 14:30:58;;;;;;;9.35;2.63;;;22.70;59.20;;;;;;4822929;29;45558;-64
2022/10/29 14:33:26;;;;;;;7.40;2.88;;;22.70;59.00;;;;;;4817935;29;45456;-63
2022/10/29 14:35:54;;;;;;;15.80;2.90;;;22.70;58.80;;;;;;4825768;29;45483;-63
2022/10/29 14:38:20;;;;;;;9.02;2.88;;;22.70;58.80;;;;;;4818749;29;46907;-63
2022/10/29 14:40:46;;;;;;;12.40;3.00;;;22.70;58.80;;;;;;4827648;29;46381;-63
2022/10/29 14:43:25;;;;;;;5.88;2.63;;;22.70;58.80;;;;;;4796059;29;44864;-62
2022/10/29 14:45:51;;;;;;;8.82;3.05;;;22.70;59.20;;;;;;4825876;29;45720;-63
2022/10/29 14:48:17;;;;;;;9.40;2.95;;;22.70;58.90;;;;;;4817416;29;48646;-63
2022/10/29 14:50:50;;;;;;;10.05;3.63;;;22.70;58.90;;;;;;4821653;29;45177;-63
2022/10/29 14:53:24;;;;;;;10.43;2.75;;;22.70;59.20;;;;;;4814450;29;45174;-65
2022/10/29 14:55:50;;;;;;;6.88;3.17;;;22.70;59.20;;;;;;4824947;29;45332;-62
2022/10/29 14:58:16;;;;;;;10.60;3.03;;;22.70;58.90;;;;;;4816219;29;46118;-63
2022/10/29 15:00:57;;;;;;;10.52;2.95;;;22.70;58.90;;;;;;4822536;29;45645;-63
2022/10/29 15:03:23;;;;;;;9.70;2.97;;;22.70;59.10;;;;;;4824840;29;45139;-64
2022/10/29 15:05:49;;;;;;;15.68;3.30;;;22.70;58.80;;;;;;4843262;29;45600;-64
2022/10/29 15:08:17;;;;;;;11.77;3.38;;;22.60;58.90;;;;;;4866390;29;46055;-63
2022/10/29 15:10:53;;;;;;;8.75;3.42;;;22.60;58.80;;;;;;4860968;29;45502;-63
2022/10/29 15:13:28;;;;;;;6.07;2.88;;;22.60;59.20;;;;;;4863336;29;45058;-63
2022/10/29 15:16:00;;;;;;;10.02;2.78;;;22.60;58.90;;;;;;4861158;29;45081;-63
2022/10/29 15:18:25;;;;;;;11.68;2.90;;;22.60;59.00;;;;;;4862538;29;46080;-62
2022/10/29 15:20:53;;;;;;;13.38;3.33;;;22.60;58.90;;;;;;4830768;29;45256;-63
2022/10/29 15:23:35;;;;;;;6.50;3.20;;;22.60;58.90;;;;;;4843232;29;45184;-63
2022/10/29 15:26:14;;;;;;;10.05;3.10;;;22.50;59.30;;;;;;4846455;29;45612;-63
2022/10/29 15:28:42;;;;;;;8.95;3.22;;;22.50;59.20;;;;;;4829508;29;45948;-62
2022/10/29 15:31:19;;;;;;;10.15;3.33;;;22.50;58.80;;;;;;4845182;29;45348;-63
2022/10/29 15:33:45;;;;;;;16.20;2.90;;;22.50;58.80;;;;;;4850108;29;45626;-63
2022/10/29 15:36:10;;;;;;;11.35;3.17;;;22.50;58.80;;;;;;4842877;29;45505;-64
2022/10/29 15:39:07;;;;;;;10.07;3.70;;;22.50;58.80;;;;;;4856600;29;44964;-63
2022/10/29 15:41:38;;;;;;;9.13;3.30;;;22.50;59.00;;;;;;4847274;29;45211;-63
2022/10/29 15:44:27;;;;;;;7.10;3.45;;;22.50;58.80;;;;;;4842048;29;45429;-63
2022/10/29 15:46:57;;;;;;;8.20;3.00;;;22.40;58.80;;;;;;4849272;29;44912;-63
2022/10/29 15:49:24;;;;;;;4.78;2.88;;;22.40;58.60;;;;;;4832178;29;45243;-63
2022/10/29 15:51:49;;;;;;;8.90;3.00;;;22.40;58.60;;;;;;4863381;29;45444;-62
2022/10/29 15:54:15;;;;;;;7.65;3.00;;;22.40;58.60;;;;;;4842742;29;45520;-63
2022/10/29 15:56:41;;;;;;;9.32;3.22;;;22.40;58.60;;;;;;4825240;29;44719;-63
2022/10/29 15:59:11;;;;;;;7.68;3.22;;;22.30;58.60;;;;;;4847901;29;45996;-63
2022/10/29 16:01:36;;;;;;;12.40;4.38;;;22.30;58.40;;;;;;4860657;29;45301;-63
2022/10/29 16:04:02;;;;;;;11.10;3.63;;;22.30;58.70;;;;;;4855970;29;45434;-63
2022/10/29 16:06:28;;;;;;;11.10;3.35;;;22.30;58.50;;;;;;4865223;29;45632;-63